Time;durP1;ratioP1;P1;durP2;ratioP2;P2;SDS_P1;SDS_P2;PMS_P1;PMS_P2;Temp;Humidity;BMP_temperature;BMP_pressure;BME280_temperature;BME280_humidity;BME280_pressure;Samples;Min_cycle;Max_cycle;Signal;HPM_P1;HPM_P2
2022/08/24 00:00:00;;;;;;;24.13;15.93;;;;;;;;;;5094292;28;20059;-69
2022/08/24 00:02:26;;;;;;;22.48;15.70;;;;;;;;;;5093908;28;20036;-68
2022/08/24 00:04:52;;;;;;;18.98;14.95;;;;;;;;;;5094246;28;20451;-69
2022/08/24 00:07:19;;;;;;;27.77;16.73;;;;;;;;;;5094154;28;20421;-69
2022/08/24 00:09:46;;;;;;;28.20;17.85;;;;;;;;;;5092597;28;20044;-68
2022/08/24 00:12:12;;;;;;;30.63;18.10;;;;;;;;;;5092457;28;20139;-69
2022/08/24 00:14:39;;;;;;;24.23;17.08;;;;;;;;;;5094039;28;20082;-69
2022/08/24 00:17:05;;;;;;;29.20;16.77;;;;;;;;;;5092448;28;20044;-69
2022/08/24 00:19:31;;;;;;;27.00;16.55;;;;;;;;;;5093931;28;20510;-69
2022/08/24 00:21:59;;;;;;;27.05;17.33;;;;;;;;;;5093891;28;20097;-68
2022/08/24 00:24:25;;;;;;;29.20;17.65;;;;;;;;;;5092412;28;20055;-69
2022/08/24 00:26:52;;;;;;;22.67;16.77;;;;;;;;;;5093418;28;20040;-69
2022/08/24 00:29:19;;;;;;;26.00;18.60;;;;;;;;;;5092530;28;20048;-69
2022/08/24 00:31:45;;;;;;;24.13;16.80;;;;;;;;;;5093753;28;20398;-68
2022/08/24 00:34:12;;;;;;;35.55;18.55;;;;;;;;;;5092465;28;20392;-69
2022/08/24 00:36:39;;;;;;;25.90;17.83;;;;;;;;;;5093673;28;20056;-68
2022/08/24 00:39:06;;;;;;;24.90;16.77;;;;;;;;;;5093580;28;20089;-68
2022/08/24 00:41:32;;;;;;;24.02;16.60;;;;;;;;;;5093581;28;20036;-69
2022/08/24 00:44:00;;;;;;;24.45;16.40;;;;;;;;;;5093524;28;20403;-69
2022/08/24 00:46:30;;;;;;;25.38;17.98;;;;;;;;;;5092229;28;20043;-69
2022/08/24 00:49:02;;;;;;;26.92;17.77;;;;;;;;;;5093461;28;20123;-69
2022/08/24 00:51:43;;;;;;;27.15;17.35;;;;;;;;;;5092217;28;20048;-69
2022/08/24 00:54:09;;;;;;;;;;;;;;;;;;5093725;28;20503;-69
2022/08/24 00:56:37;;;;;;;28.52;15.70;;;;;;;;;;5093168;28;19969;-69
2022/08/24 00:59:07;;;;;;;25.50;17.23;;;;;;;;;;5093299;28;20036;-69
2022/08/24 01:01:34;;;;;;;30.80;18.17;;;;;;;;;;5091753;28;20117;-69
2022/08/24 01:04:01;;;;;;;24.77;17.13;;;19.00;99.90;;;;;;5093219;28;20445;-69
2022/08/24 01:06:27;;;;;;;26.85;16.50;;;19.10;99.90;;;;;;5093269;28;20418;-70
2022/08/24 01:08:53;;;;;;;27.95;17.95;;;19.10;99.90;;;;;;5093090;28;20507;-69
2022/08/24 01:11:21;;;;;;;24.85;17.60;;;18.80;99.90;;;;;;5093169;28;20043;-69
2022/08/24 01:13:51;;;;;;;27.52;17.30;;;18.80;99.90;;;;;;5092610;28;20062;-69
2022/08/24 01:18:48;;;;;;;26.83;16.33;;;18.90;99.90;;;;;;5093140;28;20036;-69
2022/08/24 01:19:13;;;;;;;25.33;16.60;;;19.00;99.90;;;;;;5093098;28;20078;-69
2022/08/24 01:22:09;;;;;;;24.17;16.48;;;18.90;99.90;;;;;;5093122;28;20089;-69
2022/08/24 01:24:35;;;;;;;25.65;16.52;;;18.70;99.90;;;;;;5093110;28;20109;-68
2022/08/24 01:27:02;;;;;;;25.58;16.52;;;18.80;99.90;;;;;;5093028;28;20040;-69
2022/08/24 01:29:30;;;;;;;23.95;15.73;;;18.60;99.90;;;;;;5093073;28;20399;-69
2022/08/24 01:31:56;;;;;;;23.48;15.65;;;18.60;99.90;;;;;;5092755;28;20044;-68
2022/08/24 01:34:22;;;;;;;25.23;14.75;;;18.60;99.90;;;;;;5092616;28;20040;-69
2022/08/24 01:36:53;;;;;;;24.67;16.38;;;18.60;99.90;;;;;;5092942;28;20036;-69
2022/08/24 01:39:23;;;;;;;27.67;17.17;;;18.50;99.90;;;;;;5092646;28;20119;-69
2022/08/24 01:41:49;;;;;;;31.42;17.05;;;18.60;99.90;;;;;;5092949;28;20059;-69
2022/08/24 01:44:14;;;;;;;26.58;16.40;;;18.50;99.90;;;;;;5092552;28;20044;-69
2022/08/24 01:46:45;;;;;;;25.55;17.33;;;18.50;99.90;;;;;;5125371;28;20052;-69
2022/08/24 01:49:11;;;;;;;26.55;16.92;;;18.70;99.90;;;;;;5092533;28;20123;-69
2022/08/24 01:51:37;;;;;;;25.83;17.50;;;18.70;99.90;;;;;;5092841;28;20039;-69
2022/08/24 01:54:04;;;;;;;25.77;16.67;;;18.70;99.90;;;;;;5092482;28;20177;-69
2022/08/24 01:56:31;;;;;;;31.48;17.17;;;18.30;99.90;;;;;;5092776;28;20388;-69
2022/08/24 01:58:58;;;;;;;24.30;16.73;;;18.50;99.90;;;;;;5091228;28;20047;-69
2022/08/24 02:01:26;;;;;;;33.25;18.73;;;18.60;99.90;;;;;;5091590;28;20475;-69
2022/08/24 02:03:52;;;;;;;32.10;18.48;;;18.30;99.90;;;;;;5092733;28;20093;-69
2022/08/24 02:06:18;;;;;;;28.58;18.33;;;18.60;99.90;;;;;;5092658;28;20101;-69
2022/08/24 02:08:44;;;;;;;26.80;17.25;;;18.30;99.90;;;;;;5092375;28;20044;-70
2022/08/24 02:11:11;;;;;;;28.98;18.02;;;18.50;99.90;;;;;;5091408;28;20062;-68
2022/08/24 02:13:39;;;;;;;30.95;19.75;;;18.60;99.90;;;;;;5092161;28;20060;-69
2022/08/24 02:16:05;;;;;;;32.50;18.55;;;18.60;99.90;;;;;;5092345;28;20036;-69
2022/08/24 02:18:32;;;;;;;27.20;18.05;;;18.40;99.90;;;;;;5092377;28;20487;-69
2022/08/24 02:20:58;;;;;;;24.48;16.10;;;18.80;99.90;;;;;;5094756;28;20036;-69
2022/08/24 02:23:24;;;;;;;30.35;17.60;;;18.30;99.90;;;;;;5096187;28;20047;-70
2022/08/24 02:25:51;;;;;;;28.65;17.98;;;18.20;99.90;;;;;;5096176;28;20415;-69
2022/08/24 02:28:17;;;;;;;27.35;16.48;;;18.50;99.90;;;;;;5095805;28;20043;-69
2022/08/24 02:30:43;;;;;;;24.55;16.70;;;18.20;99.90;;;;;;5096147;28;20056;-69
2022/08/24 02:33:09;;;;;;;25.50;16.50;;;18.50;99.90;;;;;;5095985;28;20054;-69
2022/08/24 02:35:35;;;;;;;28.77;18.20;;;;;;;;;;5096000;28;20036;-69
2022/08/24 02:38:01;;;;;;;26.60;16.98;;;;;;;;;;5095567;28;20125;-69
2022/08/24 02:40:28;;;;;;;24.48;16.38;;;;;;;;;;5095666;28;20079;-69
2022/08/24 02:42:54;;;;;;;27.20;17.33;;;;;;;;;;5094652;28;20047;-69
2022/08/24 02:45:20;;;;;;;25.85;16.67;;;;;;;;;;5095817;28;20541;-68
2022/08/24 02:47:46;;;;;;;29.80;18.48;;;;;;;;;;5095769;28;20039;-70
2022/08/24 02:50:14;;;;;;;28.13;18.15;;;;;;;;;;5095654;28;20044;-69
2022/08/24 02:52:41;;;;;;;35.60;18.30;;;;;;;;;;5095229;28;20083;-69
2022/08/24 02:55:08;;;;;;;23.27;16.38;;;;;;;;;;5095600;28;20535;-69
2022/08/24 02:57:34;;;;;;;32.05;16.63;;;;;;;;;;5095583;28;20036;-69
2022/08/24 03:00:00;;;;;;;27.05;16.48;;;;;;;;;;5094210;28;20394;-69
2022/08/24 03:02:26;;;;;;;24.65;16.77;;;;;;;;;;5095527;28;20032;-69
2022/08/24 03:04:52;;;;;;;27.27;16.35;;;;;;;;;;5095136;28;20036;-69
2022/08/24 03:07:18;;;;;;;27.00;16.60;;;;;;;;;;5095359;28;20065;-69
2022/08/24 03:09:45;;;;;;;23.88;16.75;;;;;;;;;;5093853;28;20127;-70
2022/08/24 03:12:11;;;;;;;31.55;17.35;;;;;;;;;;5094652;28;20048;-69
2022/08/24 03:14:37;;;;;;;25.08;16.88;;;;;;;;;;5095138;28;20044;-69
2022/08/24 03:17:03;;;;;;;26.67;15.85;;;;;;;;;;5094008;28;20043;-69
2022/08/24 03:19:29;;;;;;;23.05;15.02;;;;;;;;;;5094769;28;20119;-69
2022/08/24 03:21:56;;;;;;;28.83;17.08;;;;;;;;;;5095101;28;20072;-70
2022/08/24 03:24:22;;;;;;;26.67;15.63;;;;;;;;;;5093505;28;20036;-69
2022/08/24 03:26:49;;;;;;;25.48;16.20;;;;;;;;;;5095011;28;20071;-69
2022/08/24 03:29:15;;;;;;;28.00;15.90;;;;;;;;;;5094899;28;20044;-69
2022/08/24 03:31:41;;;;;;;22.63;14.02;;;18.00;99.90;;;;;;5094904;28;20070;-69
2022/08/24 03:34:06;;;;;;;29.30;16.08;;;18.00;99.90;;;;;;5094696;28;20036;-69
2022/08/24 03:36:32;;;;;;;23.30;15.02;;;18.00;99.90;;;;;;5094824;28;20040;-68
2022/08/24 03:38:58;;;;;;;22.05;15.00;;;17.90;99.90;;;;;;5127471;27;20044;-68
2022/08/24 03:41:24;;;;;;;21.90;13.95;;;17.90;99.90;;;;;;5094376;28;20074;-69
2022/08/24 03:43:49;;;;;;;23.45;14.52;;;17.90;99.90;;;;;;5094334;28;20036;-69
2022/08/24 03:46:19;;;;;;;25.20;15.02;;;17.90;99.90;;;;;;5094225;28;20032;-68
2022/08/24 03:48:45;;;;;;;22.35;15.68;;;17.90;99.90;;;;;;5094612;28;20071;-68
2022/08/24 03:51:13;;;;;;;26.02;16.13;;;17.90;99.90;;;;;;5094454;28;20101;-69
2022/08/24 03:53:40;;;;;;;18.50;13.75;;;17.90;99.90;;;;;;5094164;28;20032;-70
2022/08/24 03:56:07;;;;;;;33.95;16.48;;;17.80;99.90;;;;;;5094428;28;20395;-68
2022/08/24 03:58:34;;;;;;;21.13;13.85;;;17.80;99.90;;;;;;5094137;28;20110;-68
2022/08/24 04:01:01;;;;;;;19.90;14.75;;;17.80;99.90;;;;;;5094143;28;20042;-68
2022/08/24 04:03:27;;;;;;;27.27;15.05;;;17.80;99.90;;;;;;5094043;28;20063;-68
2022/08/24 04:05:53;;;;;;;20.10;13.82;;;17.80;99.90;;;;;;5094108;28;20391;-68
2022/08/24 04:08:19;;;;;;;19.77;14.05;;;17.70;99.90;;;;;;5094204;28;20039;-69
2022/08/24 04:10:46;;;;;;;22.63;14.05;;;17.70;99.90;;;;;;5093873;28;20075;-69
2022/08/24 04:13:12;;;;;;;24.65;14.80;;;17.70;99.90;;;;;;5093635;28;20060;-68
2022/08/24 04:15:39;;;;;;;24.02;14.85;;;17.70;99.90;;;;;;5093721;28;20127;-68
2022/08/24 04:18:05;;;;;;;21.17;13.93;;;17.70;99.90;;;;;;5094057;28;20130;-68
2022/08/24 04:20:35;;;;;;;20.90;15.23;;;17.70;99.90;;;;;;5094014;28;20111;-68
2022/08/24 04:23:01;;;;;;;22.02;14.68;;;17.70;99.90;;;;;;5094150;28;20044;-68
2022/08/24 04:25:27;;;;;;;22.75;13.02;;;17.60;99.90;;;;;;5093910;28;20406;-68
2022/08/24 04:27:53;;;;;;;21.55;14.13;;;17.60;99.90;;;;;;5093876;28;20131;-68
2022/08/24 04:30:18;;;;;;;19.17;12.90;;;17.60;99.90;;;;;;5093797;28;20047;-68
2022/08/24 04:32:44;;;;;;;22.75;13.93;;;17.60;99.90;;;;;;5093377;28;20047;-68
2022/08/24 04:35:10;;;;;;;23.50;14.82;;;17.60;99.90;;;;;;5126158;27;20051;-68
2022/08/24 04:37:35;;;;;;;24.70;15.00;;;17.60;99.90;;;;;;5093705;28;20506;-68
2022/08/24 04:40:02;;;;;;;22.55;14.13;;;17.60;99.90;;;;;;5126249;27;20036;-69
2022/08/24 04:42:30;;;;;;;23.58;14.48;;;17.60;99.90;;;;;;5093318;28;20040;-69
2022/08/24 04:44:56;;;;;;;24.05;14.40;;;17.60;99.90;;;;;;5092063;28;20040;-68
2022/08/24 04:47:21;;;;;;;19.17;12.90;;;17.60;99.90;;;;;;5093491;28;20039;-69
2022/08/24 04:49:47;;;;;;;21.42;13.18;;;17.60;99.90;;;;;;5093447;28;20044;-69
2022/08/24 04:52:13;;;;;;;19.13;13.48;;;17.60;99.90;;;;;;5093047;28;20036;-68
2022/08/24 04:54:38;;;;;;;21.45;13.57;;;17.60;99.90;;;;;;5093413;28;20039;-69
2022/08/24 04:57:04;;;;;;;20.02;14.55;;;17.60;99.90;;;;;;5093376;28;20044;-68
2022/08/24 04:59:30;;;;;;;20.65;13.43;;;17.60;99.90;;;;;;5093398;28;20032;-68
2022/08/24 05:01:56;;;;;;;21.70;13.27;;;17.70;99.90;;;;;;5093327;28;20131;-68
2022/08/24 05:04:22;;;;;;;20.25;12.05;;;17.60;99.90;;;;;;5093286;28;20433;-68
2022/08/24 05:06:49;;;;;;;21.58;13.88;;;17.80;99.90;;;;;;5091968;28;20101;-68
2022/08/24 05:09:15;;;;;;;22.05;14.45;;;17.70;99.90;;;;;;5093293;28;20044;-68
2022/08/24 05:11:40;;;;;;;21.38;14.27;;;17.70;99.90;;;;;;5092868;28;20043;-68
2022/08/24 05:14:06;;;;;;;18.88;13.13;;;17.70;99.90;;;;;;5092627;28;20114;-68
2022/08/24 05:16:34;;;;;;;23.00;14.13;;;17.80;99.90;;;;;;5093165;28;20044;-68
2022/08/24 05:19:00;;;;;;;19.55;13.82;;;17.80;99.90;;;;;;5091576;28;20106;-69
2022/08/24 05:21:27;;;;;;;26.00;15.55;;;17.80;99.90;;;;;;5093152;28;20132;-68
2022/08/24 05:23:53;;;;;;;29.95;15.90;;;17.90;99.90;;;;;;5093079;28;20450;-69
2022/08/24 05:26:23;;;;;;;22.95;15.18;;;17.80;99.90;;;;;;5092734;28;20066;-68
2022/08/24 05:28:49;;;;;;;23.85;15.70;;;17.90;99.90;;;;;;5093084;28;20479;-69
2022/08/24 05:31:20;;;;;;;27.02;15.75;;;18.00;99.90;;;;;;5092948;28;20059;-68
2022/08/24 05:33:47;;;;;;;25.92;16.58;;;18.10;99.90;;;;;;5092979;28;20395;-68
2022/08/24 05:36:20;;;;;;;21.70;14.38;;;18.10;99.90;;;;;;5093082;28;20488;-68
2022/08/24 05:38:47;;;;;;;26.98;16.60;;;18.10;99.90;;;;;;5092683;28;20115;-69
2022/08/24 05:41:14;;;;;;;28.02;16.20;;;18.20;99.90;;;;;;5092496;28;20051;-68
2022/08/24 05:43:39;;;;;;;24.83;15.00;;;18.30;99.90;;;;;;5092734;28;20094;-68
2022/08/24 05:46:05;;;;;;;26.95;16.25;;;18.30;99.90;;;;;;5092854;28;20044;-68
2022/08/24 05:48:34;;;;;;;27.98;18.25;;;18.40;99.90;;;;;;5092802;28;20043;-68
2022/08/24 05:51:00;;;;;;;33.05;17.63;;;18.50;99.90;;;;;;5092900;28;20573;-68
2022/08/24 05:53:26;;;;;;;33.53;18.38;;;18.60;99.90;;;;;;5092510;28;20446;-69
2022/08/24 05:55:53;;;;;;;26.92;18.13;;;18.60;99.90;;;;;;5094548;28;20036;-68
2022/08/24 05:58:19;;;;;;;31.33;18.60;;;18.60;99.90;;;;;;5096369;28;20036;-69
2022/08/24 06:00:45;;;;;;;37.42;19.45;;;18.80;99.90;;;;;;5096716;28;20043;-68
2022/08/24 06:03:13;;;;;;;30.67;18.70;;;18.80;99.90;;;;;;5096646;28;20047;-69
2022/08/24 06:05:40;;;;;;;36.38;20.17;;;18.90;99.90;;;;;;5096588;28;20047;-69
2022/08/24 06:08:07;;;;;;;40.08;20.38;;;19.00;99.90;;;;;;5096525;28;20437;-68
2022/08/24 06:10:39;;;;;;;36.38;20.52;;;19.10;99.90;;;;;;5096125;28;20035;-69
2022/08/24 06:13:05;;;;;;;36.42;19.98;;;19.20;99.90;;;;;;5095827;28;20442;-69
2022/08/24 06:15:31;;;;;;;37.20;21.13;;;19.30;99.90;;;;;;5096166;28;20043;-69
2022/08/24 06:17:57;;;;;;;37.45;21.55;;;19.40;99.90;;;;;;5094594;28;20036;-70
2022/08/24 06:20:23;;;;;;;37.00;22.08;;;;;;;;;;5096064;28;20140;-68
2022/08/24 06:22:49;;;;;;;33.03;19.42;;;19.70;99.90;;;;;;5095976;28;20200;-69
2022/08/24 06:27:59;;;;;;;33.30;20.17;;;19.90;99.90;;;;;;5095938;28;20051;-70
2022/08/24 06:30:24;;;;;;;31.42;21.55;;;20.20;99.90;;;;;;5128928;27;20039;-68
2022/08/24 06:32:50;;;;;;;29.58;18.98;;;20.30;99.90;;;;;;5095936;28;20122;-68
2022/08/24 06:35:16;;;;;;;27.63;18.40;;;20.50;99.90;;;;;;5095975;28;20036;-69
2022/08/24 06:37:42;;;;;;;25.92;18.17;;;;;;;;;;5095842;28;20028;-69
2022/08/24 06:40:09;;;;;;;28.58;18.05;;;20.80;99.90;;;;;;5095806;28;20040;-69
2022/08/24 06:42:35;;;;;;;28.85;17.85;;;20.90;99.90;;;;;;5095801;28;20040;-69
2022/08/24 06:45:01;;;;;;;25.00;16.05;;;21.10;99.90;;;;;;5095796;28;20097;-70
2022/08/24 06:47:27;;;;;;;24.55;15.75;;;21.20;99.90;;;;;;5095460;28;20040;-70
2022/08/24 06:49:53;;;;;;;25.17;15.90;;;21.50;99.90;;;;;;5094226;28;20048;-68
2022/08/24 06:52:19;;;;;;;27.05;16.67;;;;;;;;;;5095315;28;20138;-69
2022/08/24 06:54:45;;;;;;;25.05;14.02;;;21.70;99.90;;;;;;5095342;28;20085;-69
2022/08/24 06:57:10;;;;;;;18.75;14.02;;;21.90;99.90;;;;;;5094028;28;20035;-70
2022/08/24 06:59:36;;;;;;;20.10;13.43;;;21.90;99.90;;;;;;5095427;28;20119;-70
2022/08/24 07:02:02;;;;;;;25.15;14.05;;;21.90;99.90;;;;;;5077318;28;20043;-70
2022/08/24 07:04:28;;;;;;;23.65;13.32;;;22.40;99.90;;;;;;5095471;28;20065;-70
2022/08/24 07:06:54;;;;;;;17.42;12.07;;;22.20;99.90;;;;;;5095132;28;20040;-70
2022/08/24 07:09:23;;;;;;;22.08;13.95;;;22.30;95.10;;;;;;5094088;28;20044;-72
2022/08/24 07:11:50;;;;;;;19.25;12.82;;;22.40;91.90;;;;;;5095320;28;20072;-70
2022/08/24 07:14:15;;;;;;;20.75;12.60;;;22.50;90.00;;;;;;5094698;28;20044;-69
2022/08/24 07:16:42;;;;;;;13.82;10.63;;;22.60;88.40;;;;;;5095291;28;20107;-70
2022/08/24 07:19:07;;;;;;;17.88;11.10;;;22.70;83.70;;;;;;5094988;28;20051;-69
2022/08/24 07:21:33;;;;;;;15.40;10.20;;;22.80;77.20;;;;;;5095076;28;20391;-70
2022/08/24 07:23:59;;;;;;;13.18;9.48;;;23.00;68.20;;;;;;5094934;28;20040;-70
2022/08/24 07:26:28;;;;;;;11.98;8.07;;;23.00;15.80;;;;;;5095001;28;20425;-70
2022/08/24 07:29:04;;;;;;;14.35;8.05;;;23.10;1.90;;;;;;5093568;28;20119;-70
2022/08/24 07:31:31;;;;;;;10.70;6.60;;;23.30;1.00;;;;;;5094692;28;20032;-70
2022/08/24 07:33:57;;;;;;;11.38;7.30;;;23.40;1.00;;;;;;5093298;28;20048;-70
2022/08/24 07:36:23;;;;;;;12.63;8.82;;;23.40;1.00;;;;;;5094819;28;20094;-70
2022/08/24 07:38:53;;;;;;;10.38;7.63;;;23.60;99.90;;;;;;5093220;28;20047;-70
2022/08/24 07:41:26;;;;;;;9.30;6.93;;;23.60;99.90;;;;;;5094477;28;20437;-70
2022/08/24 07:43:53;;;;;;;9.20;6.05;;;23.70;99.90;;;;;;5076610;28;20051;-70
2022/08/24 07:46:20;;;;;;;9.30;6.75;;;;;;;;;;5093186;28;20402;-70
2022/08/24 07:48:46;;;;;;;10.95;7.20;;;23.90;99.90;;;;;;5094263;28;20036;-70
2022/08/24 07:51:14;;;;;;;10.82;6.00;;;24.00;1.00;;;;;;5094624;28;20410;-69
2022/08/24 07:53:40;;;;;;;9.13;5.53;;;24.00;1.00;;;;;;5094140;28;20040;-70
2022/08/24 07:56:07;;;;;;;7.15;5.78;;;24.20;1.00;;;;;;5094097;28;20166;-69
2022/08/24 07:58:34;;;;;;;9.23;5.50;;;24.20;1.00;;;;;;5093301;28;20111;-71
2022/08/24 08:01:00;;;;;;;6.85;5.47;;;24.30;1.00;;;;;;5094413;28;20118;-71
2022/08/24 08:03:28;;;;;;;6.63;4.68;;;24.40;99.90;;;;;;5092850;28;20052;-70
2022/08/24 08:05:57;;;;;;;7.43;5.65;;;24.40;99.90;;;;;;5093986;28;20048;-70
2022/08/24 08:08:24;;;;;;;8.07;5.07;;;24.50;99.90;;;;;;5092777;28;20040;-69
2022/08/24 08:10:51;;;;;;;5.15;3.45;;;24.50;99.90;;;;;;5094169;28;20063;-70
2022/08/24 08:13:17;;;;;;;5.85;3.30;;;24.60;1.00;;;;;;5093755;28;20479;-69
2022/08/24 08:15:43;;;;;;;6.47;4.20;;;24.80;1.00;;;;;;5094066;28;20040;-69
2022/08/24 08:18:09;;;;;;;4.65;3.72;;;24.80;99.90;;;;;;5092095;28;20044;-69
2022/08/24 08:20:38;;;;;;;6.22;4.45;;;24.80;1.00;;;;;;5093651;28;20107;-69
2022/08/24 08:25:51;;;;;;;6.43;4.47;;;24.90;99.90;;;;;;5093890;28;20541;-69
2022/08/24 08:28:17;;;;;;;6.07;4.60;;;25.10;99.90;;;;;;5093633;28;20075;-69
2022/08/24 08:30:43;;;;;;;7.38;4.60;;;25.20;38.10;;;;;;5093823;28;20066;-70
2022/08/24 08:33:09;;;;;;;9.15;5.13;;;25.20;99.90;;;;;;5093377;28;20047;-69
2022/08/24 08:35:36;;;;;;;8.30;5.10;;;25.20;99.90;;;;;;5093466;28;20036;-69
2022/08/24 08:38:03;;;;;;;9.90;5.10;;;25.30;99.90;;;;;;5093723;28;20039;-69
2022/08/24 08:40:44;;;;;;;6.30;4.38;;;25.30;99.90;;;;;;5093636;28;20035;-69
2022/08/24 08:43:41;;;;;;;6.50;4.55;;;25.30;99.90;;;;;;5093529;28;20149;-69
2022/08/24 08:46:43;;;;;;;7.90;4.80;;;25.40;25.20;;;;;;5067850;28;20056;-70
2022/08/24 08:49:34;;;;;;;7.35;4.88;;;25.50;99.90;;;;;;5093362;28;20044;-69
2022/08/24 08:52:26;;;;;;;6.70;5.53;;;25.50;1.00;;;;;;5093026;28;20036;-70
2022/08/24 08:55:10;;;;;;;6.40;4.18;;;25.60;99.90;;;;;;5093380;28;20032;-72
2022/08/24 08:57:39;;;;;;;5.07;3.63;;;25.70;99.90;;;;;;5092888;28;20051;-69
2022/08/24 09:00:21;;;;;;;7.00;4.53;;;25.80;99.90;;;;;;5093156;28;20055;-71
2022/08/24 09:02:47;;;;;;;7.75;4.05;;;;;;;;;;5093165;28;20415;-70
2022/08/24 09:05:50;;;;;;;5.63;3.40;;;25.80;99.90;;;;;;5092771;28;20043;-70
2022/08/24 09:08:18;;;;;;;5.43;3.47;;;;;;;;;;5093085;28;20409;-70
2022/08/24 09:11:05;;;;;;;7.20;2.90;;;;;;;;;;5093028;28;20521;-71
2022/08/24 09:13:49;;;;;;;6.72;3.60;;;;;;;;;;5092387;28;20563;-70
2022/08/24 09:16:24;;;;;;;4.40;3.50;;;26.30;1.00;;;;;;5093020;28;20369;-70
2022/08/24 09:19:13;;;;;;;8.27;4.20;;;26.30;1.00;;;;;;5093163;28;20036;-70
2022/08/24 09:22:09;;;;;;;5.78;4.10;;;26.30;1.00;;;;;;5092830;28;20079;-71
2022/08/24 09:24:41;;;;;;;5.13;3.40;;;26.30;1.00;;;;;;5093079;28;20032;-71
2022/08/24 09:27:21;;;;;;;7.07;3.78;;;26.30;1.00;;;;;;5093052;28;20036;-70
2022/08/24 09:30:18;;;;;;;4.03;3.25;;;26.40;1.00;;;;;;5095225;28;20040;-70
2022/08/24 09:33:18;;;;;;;5.40;3.95;;;26.40;99.90;;;;;;5092204;28;20048;-69
2022/08/24 09:35:50;;;;;;;7.72;3.83;;;26.30;99.90;;;;;;5083670;28;20501;-70
2022/08/24 09:38:25;;;;;;;3.03;2.40;;;26.40;1.00;;;;;;5097074;28;20036;-70
2022/08/24 09:41:21;;;;;;;4.55;2.88;;;26.50;1.00;;;;;;5096772;28;20169;-70
2022/08/24 09:44:12;;;;;;;4.03;2.58;;;26.60;99.90;;;;;;5096959;28;20036;-70
2022/08/24 09:46:49;;;;;;;4.63;2.70;;;26.70;99.90;;;;;;5096962;28;20106;-69
2022/08/24 09:49:40;;;;;;;3.58;2.67;;;26.80;99.90;;;;;;5095525;28;20082;-72
2022/08/24 09:52:17;;;;;;;3.38;2.50;;;26.90;99.90;;;;;;5096900;28;20072;-70
2022/08/24 09:55:12;;;;;;;4.68;2.38;;;26.90;99.90;;;;;;5096835;28;20075;-70
2022/08/24 09:57:42;;;;;;;2.65;2.20;;;27.00;99.90;;;;;;5096784;28;20095;-71
2022/08/24 10:00:24;;;;;;;5.15;2.22;;;27.00;99.90;;;;;;5096526;28;20108;-70
2022/08/24 10:03:15;;;;;;;5.65;2.60;;;27.10;99.90;;;;;;5096687;28;20165;-70
2022/08/24 10:06:25;;;;;;;2.58;2.08;;;27.10;99.90;;;;;;5096368;28;20047;-70
2022/08/24 10:09:11;;;;;;;2.30;1.95;;;27.10;99.90;;;;;;5033940;28;20485;-71
2022/08/24 10:11:58;;;;;;;6.25;1.90;;;27.30;99.90;;;;;;5092212;28;20064;-70
2022/08/24 10:14:39;;;;;;;2.47;2.08;;;27.40;99.90;;;;;;5095988;28;20051;-70
2022/08/24 10:17:34;;;;;;;4.22;1.85;;;27.50;99.90;;;;;;5096431;28;20040;-70
2022/08/24 10:20:15;;;;;;;4.25;2.13;;;27.20;99.90;;;;;;5096307;28;20039;-71
2022/08/24 10:22:44;;;;;;;2.97;2.28;;;27.70;99.90;;;;;;5096310;28;20123;-70
2022/08/24 10:25:22;;;;;;;2.08;1.60;;;27.80;99.90;;;;;;5095979;28;20113;-71
2022/08/24 10:28:02;;;;;;;1.92;1.73;;;27.80;99.90;;;;;;5096231;28;20040;-71
2022/08/24 10:30:44;;;;;;;2.60;1.92;;;27.80;99.90;;;;;;5096109;28;20029;-70
2022/08/24 10:33:16;;;;;;;5.03;2.00;;;27.90;99.90;;;;;;5096012;28;20043;-70
2022/08/24 10:36:18;;;;;;;2.67;1.80;;;28.00;99.90;;;;;;5096122;28;20044;-70
2022/08/24 10:41:59;;;;;;;1.90;1.35;;;28.10;99.90;;;;;;5094785;28;20135;-70
2022/08/24 10:44:48;;;;;;;3.08;1.73;;;28.00;99.90;;;;;;5095867;28;20525;-70
2022/08/24 10:47:19;;;;;;;2.97;1.90;;;28.10;99.90;;;;;;5095880;28;20048;-72
2022/08/24 10:50:10;;;;;;;2.53;1.85;;;28.10;99.90;;;;;;5095759;28;20093;-70
2022/08/24 10:52:44;;;;;;;;;;;28.10;99.90;;;;;;5095736;28;20043;-71
2022/08/24 10:55:15;;;;;;;2.83;1.58;;;28.10;99.90;;;;;;5095564;28;20019;-70
2022/08/24 10:57:50;;;;;;;1.73;1.40;;;28.00;99.90;;;;;;5095269;28;20083;-71
2022/08/24 11:00:18;;;;;;;2.75;1.80;;;28.10;99.90;;;;;;5095323;28;20076;-69
2022/08/24 11:02:45;;;;;;;2.30;1.42;;;28.10;99.90;;;;;;5095525;28;20040;-70
2022/08/24 11:05:29;;;;;;;1.85;1.40;;;28.10;99.90;;;;;;5095409;28;20047;-71
2022/08/24 11:07:57;;;;;;;2.08;1.50;;;28.20;99.90;;;;;;5095489;28;20036;-70
2022/08/24 11:10:26;;;;;;;2.58;1.90;;;28.10;99.90;;;;;;5095111;28;20044;-70
2022/08/24 11:12:52;;;;;;;1.52;1.30;;;27.90;99.90;;;;;;5094896;28;20407;-70
2022/08/24 11:15:26;;;;;;;2.33;1.55;;;27.90;99.90;;;;;;5094859;28;20044;-69
2022/08/24 11:17:59;;;;;;;2.25;1.55;;;27.90;99.90;;;;;;5095242;28;20044;-69
2022/08/24 11:20:29;;;;;;;1.92;1.65;;;28.10;99.90;;;;;;5095233;28;20072;-69
2022/08/24 11:23:14;;;;;;;2.38;1.83;;;28.10;99.90;;;;;;5095147;28;20462;-70
2022/08/24 11:25:53;;;;;;;1.95;1.70;;;28.30;99.90;;;;;;5095066;28;20036;-69
2022/08/24 11:28:40;;;;;;;2.35;1.77;;;28.40;99.90;;;;;;5093860;28;20483;-70
2022/08/24 11:31:33;;;;;;;1.70;1.40;;;28.50;99.90;;;;;;5110649;28;20035;-69
2022/08/24 11:34:09;;;;;;;3.55;1.50;;;28.70;99.90;;;;;;5094156;28;20135;-70
2022/08/24 11:36:37;;;;;;;2.10;1.40;;;28.70;99.90;;;;;;5094958;28;20063;-69
2022/08/24 11:39:31;;;;;;;1.80;1.17;;;28.50;93.30;;;;;;5093278;28;20044;-70
2022/08/24 11:42:20;;;;;;;1.65;1.25;;;28.50;96.50;;;;;;5094469;28;20128;-69
2022/08/24 11:44:53;;;;;;;1.88;1.55;;;28.50;97.70;;;;;;5094608;28;20079;-69
2022/08/24 11:47:34;;;;;;;1.90;1.70;;;28.20;91.40;;;;;;5094655;28;20043;-69
2022/08/24 11:50:09;;;;;;;1.65;1.33;;;28.10;89.70;;;;;;5094595;28;20047;-69
2022/08/24 11:53:02;;;;;;;2.08;1.50;;;28.00;84.40;;;;;;5091929;28;20052;-69
2022/08/24 11:55:49;;;;;;;1.58;1.27;;;27.90;89.20;;;;;;5094415;28;20039;-70
2022/08/24 11:58:42;;;;;;;2.42;1.60;;;27.50;86.90;;;;;;5094154;28;20079;-69
2022/08/24 12:01:22;;;;;;;3.10;1.70;;;27.80;86.30;;;;;;5094090;28;20051;-69
2022/08/24 12:04:11;;;;;;;1.33;1.10;;;27.70;89.10;;;;;;5093840;28;20044;-69
2022/08/24 12:06:46;;;;;;;1.38;1.27;;;27.70;86.80;;;;;;5094129;28;20191;-69
2022/08/24 12:09:28;;;;;;;3.15;1.50;;;27.70;86.00;;;;;;5094084;28;20040;-69
2022/08/24 12:12:26;;;;;;;1.65;1.33;;;27.80;92.20;;;;;;5093907;28;20044;-69
2022/08/24 12:15:17;;;;;;;3.38;1.60;;;27.90;82.10;;;;;;5093084;28;20047;-69
2022/08/24 12:17:46;;;;;;;1.63;1.23;;;27.90;86.80;;;;;;5093896;28;20510;-69
2022/08/24 12:20:31;;;;;;;1.50;1.27;;;28.10;91.40;;;;;;5093891;28;20036;-69
2022/08/24 12:23:01;;;;;;;1.50;1.30;;;28.40;90.70;;;;;;5093333;28;20278;-68
2022/08/24 12:28:24;;;;;;;1.23;0.77;;;28.90;94.40;;;;;;5093548;28;20040;-69
2022/08/24 12:30:52;;;;;;;3.63;1.20;;;29.10;93.00;;;;;;5093273;28;20078;-70
2022/08/24 12:33:24;;;;;;;1.23;1.10;;;29.20;86.90;;;;;;5093601;28;20047;-69
2022/08/24 12:35:56;;;;;;;0.85;0.85;;;29.00;87.10;;;;;;5092326;28;20040;-69
2022/08/24 12:38:32;;;;;;;1.10;1.00;;;29.00;82.30;;;;;;5093492;28;20040;-68
2022/08/24 12:41:04;;;;;;;1.55;0.90;;;29.10;87.60;;;;;;5093822;28;20487;-69
2022/08/24 12:43:38;;;;;;;1.63;1.27;;;29.20;82.60;;;;;;5093156;28;20079;-69
2022/08/24 12:46:05;;;;;;;1.17;1.08;;;29.30;99.90;;;;;;5092049;28;20044;-68
2022/08/24 12:49:00;;;;;;;1.20;1.10;;;29.30;99.90;;;;;;5091945;28;20116;-70
2022/08/24 12:51:56;;;;;;;1.75;1.00;;;29.20;99.90;;;;;;5093267;28;20044;-70
2022/08/24 12:54:59;;;;;;;1.25;1.05;;;28.90;99.90;;;;;;5091522;28;20574;-69
2022/08/24 12:57:41;;;;;;;1.77;1.20;;;29.00;99.90;;;;;;5091844;28;20040;-70
2022/08/24 13:00:20;;;;;;;1.60;1.08;;;29.10;99.90;;;;;;5093106;28;20040;-69
2022/08/24 13:03:05;;;;;;;1.23;1.05;;;28.90;99.90;;;;;;5093104;28;20032;-69
2022/08/24 13:05:48;;;;;;;1.85;1.30;;;28.80;99.90;;;;;;5092804;28;20036;-69
2022/08/24 13:08:32;;;;;;;1.63;1.08;;;28.50;99.90;;;;;;5093119;28;20032;-69
2022/08/24 13:11:09;;;;;;;1.42;1.00;;;28.50;99.90;;;;;;5093057;28;20064;-69
2022/08/24 13:14:11;;;;;;;1.88;1.17;;;28.60;99.90;;;;;;5091473;28;20135;-69
2022/08/24 13:16:50;;;;;;;3.60;1.10;;;28.40;99.90;;;;;;5074831;28;20048;-68
2022/08/24 13:19:22;;;;;;;1.25;1.10;;;28.30;99.90;;;;;;5091459;28;20115;-69
2022/08/24 13:22:18;;;;;;;2.97;1.38;;;28.30;99.90;;;;;;5093016;28;20067;-69
2022/08/24 13:24:57;;;;;;;1.60;1.30;;;28.60;99.90;;;;;;5092849;28;20040;-69
2022/08/24 13:27:23;;;;;;;1.30;1.10;;;28.60;99.90;;;;;;5091756;28;20071;-69
2022/08/24 13:29:53;;;;;;;1.30;1.05;;;28.70;99.90;;;;;;5093013;28;20036;-70